sensor_id;sensor_type;location;lat;lon;timestamp;pressure;altitude;pressure_sealevel;temperature;humidity
72428;BME280;60419;48.880;18.036;2023-02-24T00:00:34;98657.94;;;8.77;59.31
72428;BME280;60419;48.880;18.036;2023-02-24T00:03:22;98650.53;;;8.47;61.64
72428;BME280;60419;48.880;18.036;2023-02-24T00:06:07;98655.00;;;8.37;61.88
72428;BME280;60419;48.880;18.036;2023-02-24T00:08:56;98644.19;;;8.79;60.85
72428;BME280;60419;48.880;18.036;2023-02-24T00:11:45;98636.69;;;8.12;63.57
72428;BME280;60419;48.880;18.036;2023-02-24T00:14:33;98634.34;;;8.60;62.16
72428;BME280;60419;48.880;18.036;2023-02-24T00:17:18;98623.31;;;8.84;60.89
72428;BME280;60419;48.880;18.036;2023-02-24T00:20:04;98631.09;;;9.22;60.47
72428;BME280;60419;48.880;18.036;2023-02-24T00:22:51;98632.34;;;9.02;61.48
72428;BME280;60419;48.880;18.036;2023-02-24T00:25:36;98626.16;;;9.02;61.44
72428;BME280;60419;48.880;18.036;2023-02-24T00:28:22;98622.66;;;8.79;62.80
72428;BME280;60419;48.880;18.036;2023-02-24T00:31:12;98616.50;;;9.23;60.56
72428;BME280;60419;48.880;18.036;2023-02-24T00:33:59;98620.78;;;9.24;61.13
72428;BME280;60419;48.880;18.036;2023-02-24T00:36:44;98616.72;;;9.13;62.42
72428;BME280;60419;48.880;18.036;2023-02-24T00:39:30;98612.47;;;9.35;61.74
72428;BME280;60419;48.880;18.036;2023-02-24T00:42:17;98615.03;;;9.40;62.06
72428;BME280;60419;48.880;18.036;2023-02-24T00:45:03;98607.69;;;9.09;62.85
72428;BME280;60419;48.880;18.036;2023-02-24T00:47:54;98596.03;;;9.00;62.88
72428;BME280;60419;48.880;18.036;2023-02-24T00:50:41;98595.31;;;7.94;66.88
72428;BME280;60419;48.880;18.036;2023-02-24T00:53:27;98576.31;;;8.04;66.81
72428;BME280;60419;48.880;18.036;2023-02-24T00:56:13;98591.19;;;7.08;70.68
72428;BME280;60419;48.880;18.036;2023-02-24T00:59:01;98554.53;;;6.04;74.25
72428;BME280;60419;48.880;18.036;2023-02-24T01:01:46;98586.19;;;6.45;75.36
72428;BME280;60419;48.880;18.036;2023-02-24T01:04:34;98575.22;;;6.79;72.90
72428;BME280;60419;48.880;18.036;2023-02-24T01:07:21;98574.78;;;6.34;74.65
72428;BME280;60419;48.880;18.036;2023-02-24T01:10:07;98569.06;;;6.79;74.44
72428;BME280;60419;48.880;18.036;2023-02-24T01:12:52;98571.25;;;6.58;74.13
72428;BME280;60419;48.880;18.036;2023-02-24T01:15:38;98567.47;;;6.78;73.62
72428;BME280;60419;48.880;18.036;2023-02-24T01:18:23;98560.69;;;6.66;74.64
72428;BME280;60419;48.880;18.036;2023-02-24T01:21:08;98563.13;;;6.44;76.21
72428;BME280;60419;48.880;18.036;2023-02-24T01:23:54;98553.34;;;6.72;75.35
72428;BME280;60419;48.880;18.036;2023-02-24T01:26:40;98551.28;;;7.48;72.18
72428;BME280;60419;48.880;18.036;2023-02-24T01:29:25;98546.34;;;7.56;71.59
72428;BME280;60419;48.880;18.036;2023-02-24T01:32:16;98545.31;;;7.65;71.49
72428;BME280;60419;48.880;18.036;2023-02-24T01:35:02;98539.75;;;7.62;70.26
72428;BME280;60419;48.880;18.036;2023-02-24T01:37:48;98525.63;;;7.97;69.74
72428;BME280;60419;48.880;18.036;2023-02-24T01:40:33;98532.56;;;7.98;68.61
72428;BME280;60419;48.880;18.036;2023-02-24T01:43:19;98523.03;;;7.92;68.34
72428;BME280;60419;48.880;18.036;2023-02-24T01:46:06;98517.47;;;8.39;66.07
72428;BME280;60419;48.880;18.036;2023-02-24T01:55:09;98501.31;;;8.39;66.49
72428;BME280;60419;48.880;18.036;2023-02-24T01:58:00;98510.34;;;8.57;65.35
72428;BME280;60419;48.880;18.036;2023-02-24T02:00:48;98509.91;;;8.27;65.87
72428;BME280;60419;48.880;18.036;2023-02-24T02:03:37;98500.66;;;8.56;64.81
72428;BME280;60419;48.880;18.036;2023-02-24T02:06:24;98499.88;;;8.78;63.78
72428;BME280;60419;48.880;18.036;2023-02-24T02:09:10;98468.78;;;8.72;63.73
72428;BME280;60419;48.880;18.036;2023-02-24T02:11:56;98483.91;;;9.13;62.96
72428;BME280;60419;48.880;18.036;2023-02-24T02:14:47;98486.88;;;8.80;63.59
72428;BME280;60419;48.880;18.036;2023-02-24T02:21:11;98484.25;;;8.66;64.38
72428;BME280;60419;48.880;18.036;2023-02-24T02:24:13;98481.88;;;8.42;65.00
72428;BME280;60419;48.880;18.036;2023-02-24T02:27:24;98478.91;;;8.30;65.00
72428;BME280;60419;48.880;18.036;2023-02-24T02:37:04;98478.31;;;7.83;66.54
72428;BME280;60419;48.880;18.036;2023-02-24T02:40:02;98473.88;;;7.50;67.88
72428;BME280;60419;48.880;18.036;2023-02-24T02:42:57;98451.53;;;7.36;67.49
72428;BME280;60419;48.880;18.036;2023-02-24T02:45:52;98478.50;;;7.31;68.64
72428;BME280;60419;48.880;18.036;2023-02-24T02:48:48;98464.47;;;7.34;68.26
72428;BME280;60419;48.880;18.036;2023-02-24T02:51:45;98458.53;;;7.51;68.39
72428;BME280;60419;48.880;18.036;2023-02-24T02:54:51;98451.97;;;7.43;67.53
72428;BME280;60419;48.880;18.036;2023-02-24T02:57:43;98452.75;;;7.71;67.38
72428;BME280;60419;48.880;18.036;2023-02-24T03:00:39;98457.47;;;8.02;66.43
72428;BME280;60419;48.880;18.036;2023-02-24T03:03:29;98448.34;;;7.75;67.24
72428;BME280;60419;48.880;18.036;2023-02-24T03:06:28;98442.75;;;7.86;67.78
72428;BME280;60419;48.880;18.036;2023-02-24T03:09:21;98443.41;;;8.41;65.62
72428;BME280;60419;48.880;18.036;2023-02-24T03:12:15;98440.72;;;8.41;65.82
72428;BME280;60419;48.880;18.036;2023-02-24T03:15:05;98437.19;;;8.41;65.22
72428;BME280;60419;48.880;18.036;2023-02-24T03:17:56;98436.06;;;8.33;65.04
72428;BME280;60419;48.880;18.036;2023-02-24T03:20:54;98431.44;;;8.56;64.49
72428;BME280;60419;48.880;18.036;2023-02-24T03:23:51;98444.38;;;8.68;63.63
72428;BME280;60419;48.880;18.036;2023-02-24T03:29:29;98428.75;;;9.10;63.43
72428;BME280;60419;48.880;18.036;2023-02-24T03:32:28;98427.44;;;8.68;64.49
72428;BME280;60419;48.880;18.036;2023-02-24T03:35:21;98430.28;;;9.02;63.09
72428;BME280;60419;48.880;18.036;2023-02-24T03:38:09;98433.88;;;9.20;62.41
72428;BME280;60419;48.880;18.036;2023-02-24T03:40:55;98423.06;;;9.43;61.39
72428;BME280;60419;48.880;18.036;2023-02-24T03:43:45;98417.03;;;9.55;61.14
72428;BME280;60419;48.880;18.036;2023-02-24T03:46:33;98417.44;;;9.31;61.89
72428;BME280;60419;48.880;18.036;2023-02-24T03:49:18;98415.50;;;8.91;63.80
72428;BME280;60419;48.880;18.036;2023-02-24T03:58:34;98413.56;;;8.52;66.05
72428;BME280;60419;48.880;18.036;2023-02-24T04:07:12;98404.94;;;9.03;64.79
72428;BME280;60419;48.880;18.036;2023-02-24T04:10:16;98391.44;;;8.95;64.40
72428;BME280;60419;48.880;18.036;2023-02-24T04:13:17;98399.88;;;9.02;64.82
72428;BME280;60419;48.880;18.036;2023-02-24T04:16:15;98400.25;;;8.78;65.40
72428;BME280;60419;48.880;18.036;2023-02-24T04:19:07;98403.38;;;8.71;65.91
72428;BME280;60419;48.880;18.036;2023-02-24T04:21:54;98402.41;;;8.22;67.72
72428;BME280;60419;48.880;18.036;2023-02-24T04:24:42;98394.75;;;8.92;66.22
72428;BME280;60419;48.880;18.036;2023-02-24T04:27:29;98394.63;;;8.66;65.71
72428;BME280;60419;48.880;18.036;2023-02-24T04:30:14;98402.78;;;8.29;66.31
72428;BME280;60419;48.880;18.036;2023-02-24T04:33:00;98397.19;;;8.03;67.61
72428;BME280;60419;48.880;18.036;2023-02-24T04:35:47;98386.38;;;8.17;67.42
72428;BME280;60419;48.880;18.036;2023-02-24T04:38:35;98394.81;;;7.51;69.01
72428;BME280;60419;48.880;18.036;2023-02-24T04:41:20;98385.94;;;7.79;67.92
72428;BME280;60419;48.880;18.036;2023-02-24T04:44:06;98352.06;;;7.77;67.75
72428;BME280;60419;48.880;18.036;2023-02-24T04:46:52;98383.25;;;8.01;68.37
72428;BME280;60419;48.880;18.036;2023-02-24T04:49:37;98370.91;;;7.64;70.51
72428;BME280;60419;48.880;18.036;2023-02-24T04:52:25;98371.59;;;8.06;68.71
72428;BME280;60419;48.880;18.036;2023-02-24T04:55:10;98371.44;;;7.52;71.05
72428;BME280;60419;48.880;18.036;2023-02-24T04:57:56;98369.41;;;7.71;71.60
72428;BME280;60419;48.880;18.036;2023-02-24T05:00:41;98374.56;;;7.82;70.61
72428;BME280;60419;48.880;18.036;2023-02-24T05:03:26;98367.91;;;7.79;71.30
72428;BME280;60419;48.880;18.036;2023-02-24T05:06:15;98357.66;;;8.26;69.25
72428;BME280;60419;48.880;18.036;2023-02-24T05:09:01;98352.69;;;8.42;69.02
72428;BME280;60419;48.880;18.036;2023-02-24T05:11:56;98360.69;;;7.88;70.86
72428;BME280;60419;48.880;18.036;2023-02-24T05:14:41;98355.06;;;8.43;68.88
72428;BME280;60419;48.880;18.036;2023-02-24T05:17:28;98354.59;;;8.41;69.37
72428;BME280;60419;48.880;18.036;2023-02-24T05:20:13;98356.53;;;8.27;69.69
72428;BME280;60419;48.880;18.036;2023-02-24T05:23:17;98355.38;;;8.42;68.83
72428;BME280;60419;48.880;18.036;2023-02-24T05:26:04;98361.81;;;8.10;70.53
72428;BME280;60419;48.880;18.036;2023-02-24T05:28:54;98345.00;;;8.27;69.96
72428;BME280;60419;48.880;18.036;2023-02-24T05:31:40;98338.69;;;8.31;69.65
72428;BME280;60419;48.880;18.036;2023-02-24T05:34:26;98340.38;;;8.50;69.63
72428;BME280;60419;48.880;18.036;2023-02-24T05:37:12;98333.81;;;8.64;68.67
72428;BME280;60419;48.880;18.036;2023-02-24T05:40:00;98335.13;;;8.76;68.57
72428;BME280;60419;48.880;18.036;2023-02-24T05:42:45;98341.31;;;8.45;68.57
72428;BME280;60419;48.880;18.036;2023-02-24T05:45:31;98326.28;;;8.22;68.99
72428;BME280;60419;48.880;18.036;2023-02-24T05:48:17;98331.03;;;8.25;70.04
72428;BME280;60419;48.880;18.036;2023-02-24T05:51:03;98329.75;;;8.22;70.10
72428;BME280;60419;48.880;18.036;2023-02-24T05:53:52;98332.25;;;8.41;69.60
72428;BME280;60419;48.880;18.036;2023-02-24T05:56:40;98337.03;;;7.40;73.43
72428;BME280;60419;48.880;18.036;2023-02-24T05:59:28;98333.06;;;7.96;72.24
72428;BME280;60419;48.880;18.036;2023-02-24T06:02:18;98327.59;;;8.33;70.84
72428;BME280;60419;48.880;18.036;2023-02-24T06:05:11;98323.63;;;8.30;70.94
72428;BME280;60419;48.880;18.036;2023-02-24T06:08:09;98322.88;;;8.38;70.55
72428;BME280;60419;48.880;18.036;2023-02-24T06:10:57;98330.53;;;8.45;69.77
72428;BME280;60419;48.880;18.036;2023-02-24T06:13:46;98332.63;;;7.81;71.84
72428;BME280;60419;48.880;18.036;2023-02-24T06:16:33;98340.72;;;8.03;71.33
72428;BME280;60419;48.880;18.036;2023-02-24T06:19:19;98328.84;;;8.27;71.38
72428;BME280;60419;48.880;18.036;2023-02-24T06:22:04;98328.63;;;8.46;70.41
72428;BME280;60419;48.880;18.036;2023-02-24T06:24:55;98323.22;;;8.14;70.90
72428;BME280;60419;48.880;18.036;2023-02-24T06:27:40;98333.00;;;8.33;70.89
72428;BME280;60419;48.880;18.036;2023-02-24T06:30:27;98333.19;;;8.68;69.23
72428;BME280;60419;48.880;18.036;2023-02-24T06:33:12;98333.84;;;8.42;70.42
72428;BME280;60419;48.880;18.036;2023-02-24T06:35:59;98307.09;;;8.46;69.77
72428;BME280;60419;48.880;18.036;2023-02-24T06:38:44;98331.03;;;8.78;69.67
72428;BME280;60419;48.880;18.036;2023-02-24T06:41:30;98329.47;;;8.55;69.47
72428;BME280;60419;48.880;18.036;2023-02-24T06:44:17;98336.91;;;8.04;71.67
72428;BME280;60419;48.880;18.036;2023-02-24T06:47:04;98330.03;;;7.39;73.49
72428;BME280;60419;48.880;18.036;2023-02-24T06:49:50;98327.06;;;7.13;75.02
72428;BME280;60419;48.880;18.036;2023-02-24T06:52:35;98328.28;;;7.71;73.75
72428;BME280;60419;48.880;18.036;2023-02-24T06:55:21;98324.91;;;7.65;73.49
72428;BME280;60419;48.880;18.036;2023-02-24T06:58:14;98318.28;;;8.08;72.29
72428;BME280;60419;48.880;18.036;2023-02-24T07:01:00;98318.53;;;7.97;72.32
72428;BME280;60419;48.880;18.036;2023-02-24T07:03:48;98324.28;;;8.05;73.21
72428;BME280;60419;48.880;18.036;2023-02-24T07:06:57;98325.75;;;7.38;75.38
72428;BME280;60419;48.880;18.036;2023-02-24T07:09:46;98322.19;;;7.79;74.24
72428;BME280;60419;48.880;18.036;2023-02-24T07:12:32;98323.22;;;7.69;74.34
72428;BME280;60419;48.880;18.036;2023-02-24T07:15:18;98323.88;;;7.75;73.37
72428;BME280;60419;48.880;18.036;2023-02-24T07:18:03;98313.25;;;7.70;73.40
72428;BME280;60419;48.880;18.036;2023-02-24T07:20:49;98309.91;;;8.09;73.18
72428;BME280;60419;48.880;18.036;2023-02-24T07:23:34;98316.38;;;8.31;72.14
72428;BME280;60419;48.880;18.036;2023-02-24T07:26:19;98313.47;;;8.50;70.96
72428;BME280;60419;48.880;18.036;2023-02-24T07:29:10;98289.88;;;8.47;70.63
72428;BME280;60419;48.880;18.036;2023-02-24T07:32:03;98297.63;;;8.48;70.26
72428;BME280;60419;48.880;18.036;2023-02-24T07:34:49;98312.22;;;8.25;71.42
72428;BME280;60419;48.880;18.036;2023-02-24T07:37:34;98313.38;;;8.63;70.65
72428;BME280;60419;48.880;18.036;2023-02-24T07:40:20;98309.56;;;8.02;71.85
72428;BME280;60419;48.880;18.036;2023-02-24T07:43:06;98312.91;;;7.85;72.77
72428;BME280;60419;48.880;18.036;2023-02-24T07:45:51;98300.75;;;8.10;72.81
72428;BME280;60419;48.880;18.036;2023-02-24T07:48:39;98306.41;;;8.31;72.00
72428;BME280;60419;48.880;18.036;2023-02-24T07:51:26;98303.16;;;8.83;70.13
72428;BME280;60419;48.880;18.036;2023-02-24T07:54:13;98295.81;;;8.75;69.25
72428;BME280;60419;48.880;18.036;2023-02-24T07:56:59;98296.53;;;8.49;69.92
72428;BME280;60419;48.880;18.036;2023-02-24T07:59:45;98289.94;;;8.33;70.34
72428;BME280;60419;48.880;18.036;2023-02-24T08:02:30;98285.34;;;8.02;72.10
72428;BME280;60419;48.880;18.036;2023-02-24T08:05:16;98281.81;;;8.55;70.80
72428;BME280;60419;48.880;18.036;2023-02-24T08:08:02;98274.25;;;8.57;70.89
72428;BME280;60419;48.880;18.036;2023-02-24T08:10:47;98281.91;;;8.73;70.06
72428;BME280;60419;48.880;18.036;2023-02-24T08:13:32;98278.13;;;7.66;71.42
72428;BME280;60419;48.880;18.036;2023-02-24T08:16:21;98271.47;;;7.86;70.58
72428;BME280;60419;48.880;18.036;2023-02-24T08:19:10;98274.69;;;7.38;73.00
72428;BME280;60419;48.880;18.036;2023-02-24T08:22:00;98271.31;;;7.46;73.60
72428;BME280;60419;48.880;18.036;2023-02-24T08:25:03;98261.19;;;7.29;73.34
72428;BME280;60419;48.880;18.036;2023-02-24T08:27:53;98263.28;;;7.32;72.57
72428;BME280;60419;48.880;18.036;2023-02-24T08:30:42;98269.25;;;7.16;73.27
72428;BME280;60419;48.880;18.036;2023-02-24T08:33:30;98262.13;;;7.11;72.59
72428;BME280;60419;48.880;18.036;2023-02-24T08:36:16;98263.56;;;7.45;71.98
72428;BME280;60419;48.880;18.036;2023-02-24T08:39:05;98262.13;;;7.61;72.23
72428;BME280;60419;48.880;18.036;2023-02-24T08:41:50;98281.22;;;7.09;72.68
72428;BME280;60419;48.880;18.036;2023-02-24T08:44:39;98298.81;;;6.33;76.03
72428;BME280;60419;48.880;18.036;2023-02-24T08:47:24;98282.91;;;6.50;76.22
72428;BME280;60419;48.880;18.036;2023-02-24T08:50:15;98263.38;;;7.27;75.72
72428;BME280;60419;48.880;18.036;2023-02-24T08:53:00;98266.13;;;7.36;75.97
72428;BME280;60419;48.880;18.036;2023-02-24T08:55:49;98262.41;;;7.60;74.41
72428;BME280;60419;48.880;18.036;2023-02-24T08:58:38;98267.50;;;7.61;75.05
72428;BME280;60419;48.880;18.036;2023-02-24T09:01:28;98253.94;;;7.66;75.76
72428;BME280;60419;48.880;18.036;2023-02-24T09:04:18;98245.66;;;8.08;73.58
72428;BME280;60419;48.880;18.036;2023-02-24T09:07:04;98229.63;;;7.71;74.29
72428;BME280;60419;48.880;18.036;2023-02-24T09:09:55;98212.47;;;7.59;75.12
72428;BME280;60419;48.880;18.036;2023-02-24T09:12:40;98227.84;;;7.67;74.56
72428;BME280;60419;48.880;18.036;2023-02-24T09:15:26;98218.75;;;7.76;75.55
72428;BME280;60419;48.880;18.036;2023-02-24T09:18:25;98210.47;;;7.73;75.56
72428;BME280;60419;48.880;18.036;2023-02-24T09:21:14;98210.97;;;7.75;75.34
72428;BME280;60419;48.880;18.036;2023-02-24T09:24:37;98216.97;;;7.94;74.23
72428;BME280;60419;48.880;18.036;2023-02-24T09:27:23;98209.94;;;7.62;74.20
72428;BME280;60419;48.880;18.036;2023-02-24T09:30:13;98179.34;;;7.72;74.51
72428;BME280;60419;48.880;18.036;2023-02-24T09:33:30;98204.53;;;8.47;73.66
72428;BME280;60419;48.880;18.036;2023-02-24T09:36:25;98204.53;;;8.07;71.89
72428;BME280;60419;48.880;18.036;2023-02-24T09:39:14;98205.81;;;8.10;72.80
72428;BME280;60419;48.880;18.036;2023-02-24T09:41:59;98203.41;;;7.54;74.35
72428;BME280;60419;48.880;18.036;2023-02-24T09:44:56;98214.13;;;7.32;74.18
72428;BME280;60419;48.880;18.036;2023-02-24T09:47:45;98199.09;;;7.31;74.88
72428;BME280;60419;48.880;18.036;2023-02-24T09:50:40;98200.09;;;7.58;73.80
72428;BME280;60419;48.880;18.036;2023-02-24T09:53:45;98190.41;;;7.48;74.63
72428;BME280;60419;48.880;18.036;2023-02-24T09:56:53;98183.31;;;7.74;74.56
72428;BME280;60419;48.880;18.036;2023-02-24T09:59:57;98175.59;;;8.13;73.73
72428;BME280;60419;48.880;18.036;2023-02-24T10:03:15;98194.56;;;8.48;72.71
72428;BME280;60419;48.880;18.036;2023-02-24T10:06:18;98176.53;;;8.08;73.03
72428;BME280;60419;48.880;18.036;2023-02-24T10:09:17;98187.50;;;8.20;73.21
72428;BME280;60419;48.880;18.036;2023-02-24T10:15:11;98171.81;;;8.23;72.70
72428;BME280;60419;48.880;18.036;2023-02-24T10:18:29;98163.31;;;7.89;72.99
72428;BME280;60419;48.880;18.036;2023-02-24T10:21:36;98154.34;;;7.71;74.29
72428;BME280;60419;48.880;18.036;2023-02-24T10:24:47;98156.44;;;7.52;74.64
72428;BME280;60419;48.880;18.036;2023-02-24T10:27:42;98146.72;;;7.65;75.60
72428;BME280;60419;48.880;18.036;2023-02-24T10:30:45;98146.34;;;7.89;74.86
72428;BME280;60419;48.880;18.036;2023-02-24T10:33:37;98138.47;;;7.39;75.15
72428;BME280;60419;48.880;18.036;2023-02-24T10:36:29;98133.22;;;7.33;76.02
72428;BME280;60419;48.880;18.036;2023-02-24T10:39:21;98127.06;;;7.33;75.95
72428;BME280;60419;48.880;18.036;2023-02-24T10:42:25;98125.69;;;7.67;76.65
72428;BME280;60419;48.880;18.036;2023-02-24T10:45:25;98125.22;;;7.65;74.69
72428;BME280;60419;48.880;18.036;2023-02-24T10:48:22;98129.00;;;7.64;75.69
72428;BME280;60419;48.880;18.036;2023-02-24T10:51:15;98131.09;;;7.44;75.93
72428;BME280;60419;48.880;18.036;2023-02-24T10:54:23;98125.13;;;7.47;76.51
72428;BME280;60419;48.880;18.036;2023-02-24T10:57:20;98117.25;;;7.51;77.35
72428;BME280;60419;48.880;18.036;2023-02-24T11:00:20;98106.91;;;7.44;76.51
72428;BME280;60419;48.880;18.036;2023-02-24T11:03:33;98097.00;;;7.85;75.85
72428;BME280;60419;48.880;18.036;2023-02-24T11:06:30;98103.34;;;7.89;76.06
72428;BME280;60419;48.880;18.036;2023-02-24T11:09:25;98093.13;;;8.08;75.46
72428;BME280;60419;48.880;18.036;2023-02-24T11:12:15;98082.91;;;8.28;74.25
72428;BME280;60419;48.880;18.036;2023-02-24T11:15:31;98076.63;;;8.50;74.00
72428;BME280;60419;48.880;18.036;2023-02-24T11:18:38;98060.91;;;8.34;73.92
72428;BME280;60419;48.880;18.036;2023-02-24T11:21:25;98057.13;;;8.53;72.66
72428;BME280;60419;48.880;18.036;2023-02-24T11:24:15;98059.66;;;8.67;72.14
72428;BME280;60419;48.880;18.036;2023-02-24T11:27:02;98064.88;;;8.46;73.29
72428;BME280;60419;48.880;18.036;2023-02-24T11:30:51;98055.25;;;8.71;72.41
72428;BME280;60419;48.880;18.036;2023-02-24T11:33:28;98055.22;;;8.45;72.88
72428;BME280;60419;48.880;18.036;2023-02-24T11:36:29;98031.81;;;8.62;72.28
72428;BME280;60419;48.880;18.036;2023-02-24T11:39:49;98042.88;;;8.87;72.08
72428;BME280;60419;48.880;18.036;2023-02-24T11:43:04;97963.09;;;8.56;71.46
72428;BME280;60419;48.880;18.036;2023-02-24T11:46:00;98037.81;;;8.33;73.68
72428;BME280;60419;48.880;18.036;2023-02-24T11:48:55;98031.47;;;8.38;74.25
72428;BME280;60419;48.880;18.036;2023-02-24T11:51:43;98028.78;;;8.38;73.83
72428;BME280;60419;48.880;18.036;2023-02-24T11:54:38;98033.00;;;8.04;74.73
72428;BME280;60419;48.880;18.036;2023-02-24T11:57:31;98030.69;;;8.29;74.79
72428;BME280;60419;48.880;18.036;2023-02-24T12:00:27;98024.97;;;8.13;75.02
72428;BME280;60419;48.880;18.036;2023-02-24T12:03:22;97990.31;;;8.20;73.87
72428;BME280;60419;48.880;18.036;2023-02-24T12:06:22;97991.09;;;8.38;73.58
72428;BME280;60419;48.880;18.036;2023-02-24T12:09:18;98006.63;;;8.32;74.32
72428;BME280;60419;48.880;18.036;2023-02-24T12:12:13;97987.63;;;8.46;74.51
72428;BME280;60419;48.880;18.036;2023-02-24T12:15:36;97981.59;;;8.84;73.17
72428;BME280;60419;48.880;18.036;2023-02-24T12:18:31;97978.78;;;8.28;75.55
72428;BME280;60419;48.880;18.036;2023-02-24T12:21:39;97966.25;;;8.41;75.23
72428;BME280;60419;48.880;18.036;2023-02-24T12:24:26;97961.00;;;8.79;73.85
72428;BME280;60419;48.880;18.036;2023-02-24T12:30:53;97946.09;;;8.82;73.74
72428;BME280;60419;48.880;18.036;2023-02-24T12:34:04;97936.94;;;8.74;74.40
72428;BME280;60419;48.880;18.036;2023-02-24T12:43:27;97923.63;;;8.69;74.64
72428;BME280;60419;48.880;18.036;2023-02-24T12:46:26;97928.19;;;8.95;74.48
72428;BME280;60419;48.880;18.036;2023-02-24T12:55:42;97913.09;;;9.49;72.29
72428;BME280;60419;48.880;18.036;2023-02-24T12:58:34;97913.03;;;9.28;72.44
72428;BME280;60419;48.880;18.036;2023-02-24T13:01:25;97906.00;;;9.66;71.19
72428;BME280;60419;48.880;18.036;2023-02-24T13:13:17;97886.31;;;9.44;72.20
72428;BME280;60419;48.880;18.036;2023-02-24T13:16:05;97885.81;;;9.13;73.07
72428;BME280;60419;48.880;18.036;2023-02-24T13:18:50;97874.38;;;9.16;73.28
72428;BME280;60419;48.880;18.036;2023-02-24T13:21:36;97876.72;;;9.56;72.51
72428;BME280;60419;48.880;18.036;2023-02-24T13:24:24;97870.34;;;9.60;72.63
72428;BME280;60419;48.880;18.036;2023-02-24T13:30:03;97862.75;;;10.04;70.37
72428;BME280;60419;48.880;18.036;2023-02-24T13:33:04;97853.00;;;9.70;72.46
72428;BME280;60419;48.880;18.036;2023-02-24T13:39:04;97851.28;;;9.65;71.84
72428;BME280;60419;48.880;18.036;2023-02-24T13:42:00;97839.34;;;9.75;72.03
72428;BME280;60419;48.880;18.036;2023-02-24T13:47:48;97835.75;;;10.04;70.31
72428;BME280;60419;48.880;18.036;2023-02-24T14:02:42;97807.06;;;10.00;70.91
72428;BME280;60419;48.880;18.036;2023-02-24T14:05:33;97807.78;;;10.09;70.57
72428;BME280;60419;48.880;18.036;2023-02-24T14:08:31;97804.94;;;10.26;69.28
72428;BME280;60419;48.880;18.036;2023-02-24T14:11:18;97804.19;;;10.63;68.11
72428;BME280;60419;48.880;18.036;2023-02-24T14:14:06;97804.63;;;10.07;69.63
72428;BME280;60419;48.880;18.036;2023-02-24T14:16:57;97796.25;;;10.21;69.56
72428;BME280;60419;48.880;18.036;2023-02-24T14:19:42;97795.63;;;10.03;69.91
72428;BME280;60419;48.880;18.036;2023-02-24T14:22:28;97791.91;;;9.95;70.82
72428;BME280;60419;48.880;18.036;2023-02-24T14:25:14;97783.75;;;9.83;70.76
72428;BME280;60419;48.880;18.036;2023-02-24T14:28:00;97786.53;;;10.07;69.62
72428;BME280;60419;48.880;18.036;2023-02-24T14:30:51;97777.31;;;9.75;71.14
72428;BME280;60419;48.880;18.036;2023-02-24T14:33:39;97776.34;;;10.25;68.93
72428;BME280;60419;48.880;18.036;2023-02-24T14:36:32;97767.47;;;10.25;69.10
72428;BME280;60419;48.880;18.036;2023-02-24T14:39:24;97767.13;;;10.14;69.48
72428;BME280;60419;48.880;18.036;2023-02-24T14:42:13;97761.31;;;10.49;68.40
72428;BME280;60419;48.880;18.036;2023-02-24T14:45:00;97760.72;;;10.31;69.79
72428;BME280;60419;48.880;18.036;2023-02-24T14:47:45;97752.31;;;9.66;71.26
72428;BME280;60419;48.880;18.036;2023-02-24T14:50:31;97743.88;;;10.34;69.67
72428;BME280;60419;48.880;18.036;2023-02-24T14:53:20;97745.66;;;10.30;68.76
72428;BME280;60419;48.880;18.036;2023-02-24T14:56:08;97743.91;;;10.01;70.34
72428;BME280;60419;48.880;18.036;2023-02-24T14:59:05;97745.41;;;9.77;70.96
72428;BME280;60419;48.880;18.036;2023-02-24T15:01:55;97725.25;;;10.08;70.04
72428;BME280;60419;48.880;18.036;2023-02-24T15:04:41;97723.59;;;10.15;69.44
72428;BME280;60419;48.880;18.036;2023-02-24T15:07:29;97725.25;;;9.95;69.81
72428;BME280;60419;48.880;18.036;2023-02-24T15:10:19;97728.44;;;9.56;71.96
72428;BME280;60419;48.880;18.036;2023-02-24T15:13:13;97702.72;;;10.25;69.31
72428;BME280;60419;48.880;18.036;2023-02-24T15:16:09;97723.53;;;10.61;68.04
72428;BME280;60419;48.880;18.036;2023-02-24T15:18:59;97711.84;;;10.94;69.94
72428;BME280;60419;48.880;18.036;2023-02-24T15:21:44;97707.56;;;11.05;66.55
72428;BME280;60419;48.880;18.036;2023-02-24T15:24:33;97676.53;;;10.87;66.58
72428;BME280;60419;48.880;18.036;2023-02-24T15:27:24;97695.50;;;11.02;66.41
72428;BME280;60419;48.880;18.036;2023-02-24T15:33:22;97696.50;;;11.10;66.43
72428;BME280;60419;48.880;18.036;2023-02-24T15:36:17;97690.97;;;11.19;66.25
72428;BME280;60419;48.880;18.036;2023-02-24T15:39:05;97671.28;;;11.06;66.92
72428;BME280;60419;48.880;18.036;2023-02-24T15:42:05;97680.06;;;11.15;66.93
72428;BME280;60419;48.880;18.036;2023-02-24T15:44:53;97685.81;;;10.03;70.96
72428;BME280;60419;48.880;18.036;2023-02-24T15:47:42;97678.72;;;9.99;70.98
72428;BME280;60419;48.880;18.036;2023-02-24T15:50:29;97673.03;;;10.25;70.41
72428;BME280;60419;48.880;18.036;2023-02-24T15:53:15;97676.22;;;9.93;71.89
72428;BME280;60419;48.880;18.036;2023-02-24T15:56:01;97670.19;;;10.33;70.92
72428;BME280;60419;48.880;18.036;2023-02-24T15:58:46;97665.47;;;10.18;71.45
72428;BME280;60419;48.880;18.036;2023-02-24T16:01:32;97656.81;;;10.12;72.03
72428;BME280;60419;48.880;18.036;2023-02-24T16:04:18;97652.44;;;9.62;73.83
72428;BME280;60419;48.880;18.036;2023-02-24T16:07:09;97654.69;;;9.60;74.09
72428;BME280;60419;48.880;18.036;2023-02-24T16:09:56;97635.59;;;9.11;75.36
72428;BME280;60419;48.880;18.036;2023-02-24T16:12:49;97626.31;;;9.42;75.05
72428;BME280;60419;48.880;18.036;2023-02-24T16:15:35;97620.63;;;9.01;76.20
72428;BME280;60419;48.880;18.036;2023-02-24T16:18:24;97620.16;;;9.41;75.06
72428;BME280;60419;48.880;18.036;2023-02-24T16:21:09;97628.56;;;9.19;74.93
72428;BME280;60419;48.880;18.036;2023-02-24T16:23:55;97617.88;;;9.10;74.71
72428;BME280;60419;48.880;18.036;2023-02-24T16:26:40;97617.59;;;9.03;75.99
72428;BME280;60419;48.880;18.036;2023-02-24T16:29:26;97608.06;;;9.05;75.42